sensor_id;sensor_type;location;lat;lon;timestamp;temperature;humidity
6098;DHT22;3077;50.922;6.584;2023-09-08T00:00:56;21.60;99.90
6098;DHT22;3077;50.922;6.584;2023-09-08T00:03:22;21.60;99.90
6098;DHT22;3077;50.922;6.584;2023-09-08T00:05:47;21.50;99.90
6098;DHT22;3077;50.922;6.584;2023-09-08T00:08:13;21.40;99.90
6098;DHT22;3077;50.922;6.584;2023-09-08T00:10:38;21.30;99.90
6098;DHT22;3077;50.922;6.584;2023-09-08T00:13:04;21.30;99.90
6098;DHT22;3077;50.922;6.584;2023-09-08T00:15:32;21.30;99.90
6098;DHT22;3077;50.922;6.584;2023-09-08T00:17:58;21.30;99.90
6098;DHT22;3077;50.922;6.584;2023-09-08T00:20:24;21.20;99.90
6098;DHT22;3077;50.922;6.584;2023-09-08T00:22:50;21.10;99.90
6098;DHT22;3077;50.922;6.584;2023-09-08T00:25:15;21.10;99.90
6098;DHT22;3077;50.922;6.584;2023-09-08T00:27:41;21.20;99.90
6098;DHT22;3077;50.922;6.584;2023-09-08T00:30:07;21.20;99.90
6098;DHT22;3077;50.922;6.584;2023-09-08T00:32:33;21.30;99.90
6098;DHT22;3077;50.922;6.584;2023-09-08T00:34:58;21.30;99.90
6098;DHT22;3077;50.922;6.584;2023-09-08T00:37:24;21.40;99.90
6098;DHT22;3077;50.922;6.584;2023-09-08T00:39:49;21.30;99.90
6098;DHT22;3077;50.922;6.584;2023-09-08T00:42:15;21.30;99.90
6098;DHT22;3077;50.922;6.584;2023-09-08T00:44:40;21.30;99.90
6098;DHT22;3077;50.922;6.584;2023-09-08T00:47:06;21.30;99.90
6098;DHT22;3077;50.922;6.584;2023-09-08T00:49:32;21.30;99.90
6098;DHT22;3077;50.922;6.584;2023-09-08T00:51:57;21.30;99.90
6098;DHT22;3077;50.922;6.584;2023-09-08T00:54:23;21.30;99.90
6098;DHT22;3077;50.922;6.584;2023-09-08T00:56:55;21.30;99.90
6098;DHT22;3077;50.922;6.584;2023-09-08T00:59:20;21.40;99.90
6098;DHT22;3077;50.922;6.584;2023-09-08T01:01:46;21.30;99.90
6098;DHT22;3077;50.922;6.584;2023-09-08T01:04:12;21.30;99.90
6098;DHT22;3077;50.922;6.584;2023-09-08T01:06:38;21.20;99.90
6098;DHT22;3077;50.922;6.584;2023-09-08T01:09:04;21.10;99.90
6098;DHT22;3077;50.922;6.584;2023-09-08T01:11:30;21.10;99.90
6098;DHT22;3077;50.922;6.584;2023-09-08T01:13:56;21.00;99.90
6098;DHT22;3077;50.922;6.584;2023-09-08T01:16:22;20.90;99.90
6098;DHT22;3077;50.922;6.584;2023-09-08T01:18:47;20.80;99.90
6098;DHT22;3077;50.922;6.584;2023-09-08T01:27:07;20.60;99.90
6098;DHT22;3077;50.922;6.584;2023-09-08T01:29:36;20.50;99.90
6098;DHT22;3077;50.922;6.584;2023-09-08T01:32:03;20.40;99.90
6098;DHT22;3077;50.922;6.584;2023-09-08T01:34:30;20.30;99.90
6098;DHT22;3077;50.922;6.584;2023-09-08T01:36:55;20.30;99.90
6098;DHT22;3077;50.922;6.584;2023-09-08T01:39:22;20.20;99.90
6098;DHT22;3077;50.922;6.584;2023-09-08T01:41:47;20.20;99.90
6098;DHT22;3077;50.922;6.584;2023-09-08T01:44:13;20.30;99.90
6098;DHT22;3077;50.922;6.584;2023-09-08T01:46:39;20.20;99.90
6098;DHT22;3077;50.922;6.584;2023-09-08T01:49:06;20.10;99.90
6098;DHT22;3077;50.922;6.584;2023-09-08T01:51:31;20.10;99.90
6098;DHT22;3077;50.922;6.584;2023-09-08T01:53:57;20.00;99.90
6098;DHT22;3077;50.922;6.584;2023-09-08T01:56:22;20.00;99.90
6098;DHT22;3077;50.922;6.584;2023-09-08T01:58:48;19.90;99.90
6098;DHT22;3077;50.922;6.584;2023-09-08T02:01:14;19.80;99.90
6098;DHT22;3077;50.922;6.584;2023-09-08T02:03:39;19.80;99.90
6098;DHT22;3077;50.922;6.584;2023-09-08T02:06:05;19.80;99.90
6098;DHT22;3077;50.922;6.584;2023-09-08T02:08:30;19.80;99.90
6098;DHT22;3077;50.922;6.584;2023-09-08T02:10:56;19.90;99.90
6098;DHT22;3077;50.922;6.584;2023-09-08T02:13:21;19.90;99.90
6098;DHT22;3077;50.922;6.584;2023-09-08T02:15:47;20.00;99.90
6098;DHT22;3077;50.922;6.584;2023-09-08T02:18:13;19.80;99.90
6098;DHT22;3077;50.922;6.584;2023-09-08T02:20:39;19.70;99.90
6098;DHT22;3077;50.922;6.584;2023-09-08T02:23:06;19.70;99.90
6098;DHT22;3077;50.922;6.584;2023-09-08T02:25:32;19.70;99.90
6098;DHT22;3077;50.922;6.584;2023-09-08T02:27:57;19.70;99.90
6098;DHT22;3077;50.922;6.584;2023-09-08T02:30:23;19.60;99.90
6098;DHT22;3077;50.922;6.584;2023-09-08T02:32:49;19.50;99.90
6098;DHT22;3077;50.922;6.584;2023-09-08T02:35:14;19.50;99.90
6098;DHT22;3077;50.922;6.584;2023-09-08T02:37:40;19.50;99.90
6098;DHT22;3077;50.922;6.584;2023-09-08T02:40:06;19.50;99.90
6098;DHT22;3077;50.922;6.584;2023-09-08T02:42:32;19.50;99.90
6098;DHT22;3077;50.922;6.584;2023-09-08T02:44:58;19.50;99.90
6098;DHT22;3077;50.922;6.584;2023-09-08T02:47:23;19.50;99.90
6098;DHT22;3077;50.922;6.584;2023-09-08T02:49:49;19.40;99.90
6098;DHT22;3077;50.922;6.584;2023-09-08T02:52:14;19.30;99.90
6098;DHT22;3077;50.922;6.584;2023-09-08T02:54:40;19.20;99.90
6098;DHT22;3077;50.922;6.584;2023-09-08T02:57:06;19.10;99.90
6098;DHT22;3077;50.922;6.584;2023-09-08T02:59:31;19.10;99.90
6098;DHT22;3077;50.922;6.584;2023-09-08T03:01:57;19.10;99.90
6098;DHT22;3077;50.922;6.584;2023-09-08T03:04:24;19.00;99.90
6098;DHT22;3077;50.922;6.584;2023-09-08T03:06:49;19.00;99.90
6098;DHT22;3077;50.922;6.584;2023-09-08T03:09:15;18.90;99.90
6098;DHT22;3077;50.922;6.584;2023-09-08T03:11:41;19.00;99.90
6098;DHT22;3077;50.922;6.584;2023-09-08T03:14:06;19.00;99.90
6098;DHT22;3077;50.922;6.584;2023-09-08T03:16:32;19.00;99.90
6098;DHT22;3077;50.922;6.584;2023-09-08T03:18:57;18.90;99.90
6098;DHT22;3077;50.922;6.584;2023-09-08T03:21:24;18.90;99.90
6098;DHT22;3077;50.922;6.584;2023-09-08T03:23:49;18.80;99.90
6098;DHT22;3077;50.922;6.584;2023-09-08T03:26:15;18.80;99.90
6098;DHT22;3077;50.922;6.584;2023-09-08T03:28:42;18.70;99.90
6098;DHT22;3077;50.922;6.584;2023-09-08T03:31:08;18.70;99.90
6098;DHT22;3077;50.922;6.584;2023-09-08T03:33:33;18.70;99.90
6098;DHT22;3077;50.922;6.584;2023-09-08T03:35:59;18.70;99.90
6098;DHT22;3077;50.922;6.584;2023-09-08T03:38:25;18.60;99.90
6098;DHT22;3077;50.922;6.584;2023-09-08T03:40:50;18.50;99.90
6098;DHT22;3077;50.922;6.584;2023-09-08T03:43:16;18.50;99.90
6098;DHT22;3077;50.922;6.584;2023-09-08T03:45:41;18.50;99.90
6098;DHT22;3077;50.922;6.584;2023-09-08T03:48:07;18.40;99.90
6098;DHT22;3077;50.922;6.584;2023-09-08T03:50:32;18.50;99.90
6098;DHT22;3077;50.922;6.584;2023-09-08T03:52:58;18.40;99.90
6098;DHT22;3077;50.922;6.584;2023-09-08T03:55:24;18.30;99.90
6098;DHT22;3077;50.922;6.584;2023-09-08T03:57:49;18.30;99.90
6098;DHT22;3077;50.922;6.584;2023-09-08T04:00:15;18.40;99.90
6098;DHT22;3077;50.922;6.584;2023-09-08T04:02:46;18.40;99.90
6098;DHT22;3077;50.922;6.584;2023-09-08T04:05:11;18.40;99.90
6098;DHT22;3077;50.922;6.584;2023-09-08T04:07:37;18.30;99.90
6098;DHT22;3077;50.922;6.584;2023-09-08T04:10:03;18.30;99.90
6098;DHT22;3077;50.922;6.584;2023-09-08T04:12:29;18.30;99.90
6098;DHT22;3077;50.922;6.584;2023-09-08T04:14:54;18.30;99.90
6098;DHT22;3077;50.922;6.584;2023-09-08T04:17:20;18.20;99.90
6098;DHT22;3077;50.922;6.584;2023-09-08T04:19:45;18.20;99.90
6098;DHT22;3077;50.922;6.584;2023-09-08T04:22:11;18.20;99.90
6098;DHT22;3077;50.922;6.584;2023-09-08T04:24:37;18.10;99.90
6098;DHT22;3077;50.922;6.584;2023-09-08T04:27:03;18.10;99.90
6098;DHT22;3077;50.922;6.584;2023-09-08T04:29:29;18.10;99.90
6098;DHT22;3077;50.922;6.584;2023-09-08T04:31:55;18.10;99.90
6098;DHT22;3077;50.922;6.584;2023-09-08T04:34:20;18.00;99.90
6098;DHT22;3077;50.922;6.584;2023-09-08T04:36:46;18.00;99.90
6098;DHT22;3077;50.922;6.584;2023-09-08T04:39:11;18.10;99.90
6098;DHT22;3077;50.922;6.584;2023-09-08T04:41:37;18.10;99.90
6098;DHT22;3077;50.922;6.584;2023-09-08T04:44:04;18.10;99.90
6098;DHT22;3077;50.922;6.584;2023-09-08T04:46:30;18.10;99.90
6098;DHT22;3077;50.922;6.584;2023-09-08T04:48:56;18.10;99.90
6098;DHT22;3077;50.922;6.584;2023-09-08T04:51:21;18.00;99.90
6098;DHT22;3077;50.922;6.584;2023-09-08T04:53:47;17.90;99.90
6098;DHT22;3077;50.922;6.584;2023-09-08T04:56:13;17.90;99.90
6098;DHT22;3077;50.922;6.584;2023-09-08T04:58:39;17.90;99.90
6098;DHT22;3077;50.922;6.584;2023-09-08T05:01:04;18.10;99.90
6098;DHT22;3077;50.922;6.584;2023-09-08T05:03:31;17.90;99.90
6098;DHT22;3077;50.922;6.584;2023-09-08T05:05:56;18.00;99.90
6098;DHT22;3077;50.922;6.584;2023-09-08T05:08:22;18.00;99.90
6098;DHT22;3077;50.922;6.584;2023-09-08T05:10:48;18.00;99.90
6098;DHT22;3077;50.922;6.584;2023-09-08T05:13:15;17.90;99.90
6098;DHT22;3077;50.922;6.584;2023-09-08T05:15:40;17.90;99.90
6098;DHT22;3077;50.922;6.584;2023-09-08T05:18:08;18.00;99.90
6098;DHT22;3077;50.922;6.584;2023-09-08T05:20:33;18.00;99.90
6098;DHT22;3077;50.922;6.584;2023-09-08T05:22:59;18.00;99.90
6098;DHT22;3077;50.922;6.584;2023-09-08T05:25:24;18.00;99.90
6098;DHT22;3077;50.922;6.584;2023-09-08T05:27:50;18.00;99.90
6098;DHT22;3077;50.922;6.584;2023-09-08T05:30:16;18.00;99.90
6098;DHT22;3077;50.922;6.584;2023-09-08T05:32:41;18.00;99.90
6098;DHT22;3077;50.922;6.584;2023-09-08T05:35:07;18.00;99.90
6098;DHT22;3077;50.922;6.584;2023-09-08T05:37:32;18.00;99.90
6098;DHT22;3077;50.922;6.584;2023-09-08T05:39:58;18.10;99.90
6098;DHT22;3077;50.922;6.584;2023-09-08T05:42:23;18.10;99.90
6098;DHT22;3077;50.922;6.584;2023-09-08T05:44:49;18.20;99.90
6098;DHT22;3077;50.922;6.584;2023-09-08T05:47:15;18.30;99.90
6098;DHT22;3077;50.922;6.584;2023-09-08T05:49:40;18.30;99.90
6098;DHT22;3077;50.922;6.584;2023-09-08T05:52:06;18.40;99.90
6098;DHT22;3077;50.922;6.584;2023-09-08T05:54:31;18.50;99.90
6098;DHT22;3077;50.922;6.584;2023-09-08T05:56:57;18.50;99.90
6098;DHT22;3077;50.922;6.584;2023-09-08T05:59:22;18.50;99.90
6098;DHT22;3077;50.922;6.584;2023-09-08T06:01:48;18.60;99.90
6098;DHT22;3077;50.922;6.584;2023-09-08T06:04:14;18.60;99.90
6098;DHT22;3077;50.922;6.584;2023-09-08T06:06:39;18.60;99.90
6098;DHT22;3077;50.922;6.584;2023-09-08T06:09:05;18.80;99.90
6098;DHT22;3077;50.922;6.584;2023-09-08T06:11:33;18.80;99.90
6098;DHT22;3077;50.922;6.584;2023-09-08T06:13:58;18.90;99.90
6098;DHT22;3077;50.922;6.584;2023-09-08T06:16:25;18.90;99.90
6098;DHT22;3077;50.922;6.584;2023-09-08T06:18:50;19.00;99.90
6098;DHT22;3077;50.922;6.584;2023-09-08T06:21:16;19.00;99.90
6098;DHT22;3077;50.922;6.584;2023-09-08T06:23:41;19.10;99.90
6098;DHT22;3077;50.922;6.584;2023-09-08T06:26:07;19.10;99.90
6098;DHT22;3077;50.922;6.584;2023-09-08T06:28:33;19.10;99.90
6098;DHT22;3077;50.922;6.584;2023-09-08T06:30:58;19.20;99.90
6098;DHT22;3077;50.922;6.584;2023-09-08T06:33:24;19.30;99.90
6098;DHT22;3077;50.922;6.584;2023-09-08T06:35:50;19.30;99.90
6098;DHT22;3077;50.922;6.584;2023-09-08T06:38:16;19.40;99.90
6098;DHT22;3077;50.922;6.584;2023-09-08T06:40:41;19.50;99.90
6098;DHT22;3077;50.922;6.584;2023-09-08T06:43:07;19.50;99.90
6098;DHT22;3077;50.922;6.584;2023-09-08T06:45:32;19.60;99.90
6098;DHT22;3077;50.922;6.584;2023-09-08T06:47:58;19.70;99.90
6098;DHT22;3077;50.922;6.584;2023-09-08T06:50:25;19.70;99.90
6098;DHT22;3077;50.922;6.584;2023-09-08T06:52:52;19.70;99.90
6098;DHT22;3077;50.922;6.584;2023-09-08T06:55:18;19.70;99.90
6098;DHT22;3077;50.922;6.584;2023-09-08T06:57:45;19.80;99.90
6098;DHT22;3077;50.922;6.584;2023-09-08T07:00:11;19.90;99.90
6098;DHT22;3077;50.922;6.584;2023-09-08T07:02:38;20.00;99.90
6098;DHT22;3077;50.922;6.584;2023-09-08T07:05:04;20.00;99.90
6098;DHT22;3077;50.922;6.584;2023-09-08T07:07:36;20.20;99.90
6098;DHT22;3077;50.922;6.584;2023-09-08T07:10:05;20.20;99.90
6098;DHT22;3077;50.922;6.584;2023-09-08T07:12:31;20.30;99.90
6098;DHT22;3077;50.922;6.584;2023-09-08T07:14:57;20.30;99.90
6098;DHT22;3077;50.922;6.584;2023-09-08T07:17:23;20.40;99.90
6098;DHT22;3077;50.922;6.584;2023-09-08T07:19:49;20.50;99.90
6098;DHT22;3077;50.922;6.584;2023-09-08T07:22:15;20.60;99.90
6098;DHT22;3077;50.922;6.584;2023-09-08T07:24:40;20.70;99.90
6098;DHT22;3077;50.922;6.584;2023-09-08T07:27:06;20.80;99.90
6098;DHT22;3077;50.922;6.584;2023-09-08T07:29:32;20.90;99.90
6098;DHT22;3077;50.922;6.584;2023-09-08T07:31:58;20.90;99.90
6098;DHT22;3077;50.922;6.584;2023-09-08T07:34:23;21.00;99.90
6098;DHT22;3077;50.922;6.584;2023-09-08T07:36:49;21.10;99.90
6098;DHT22;3077;50.922;6.584;2023-09-08T07:39:14;21.30;99.90
6098;DHT22;3077;50.922;6.584;2023-09-08T07:41:40;21.40;99.90
6098;DHT22;3077;50.922;6.584;2023-09-08T07:44:06;21.40;99.90
6098;DHT22;3077;50.922;6.584;2023-09-08T07:46:32;21.50;99.90
6098;DHT22;3077;50.922;6.584;2023-09-08T07:48:59;21.60;99.90
6098;DHT22;3077;50.922;6.584;2023-09-08T07:51:25;21.70;99.90
6098;DHT22;3077;50.922;6.584;2023-09-08T07:53:52;21.80;99.90
6098;DHT22;3077;50.922;6.584;2023-09-08T07:56:18;21.80;99.90
6098;DHT22;3077;50.922;6.584;2023-09-08T07:58:43;21.90;99.90
6098;DHT22;3077;50.922;6.584;2023-09-08T08:01:09;21.90;99.90
6098;DHT22;3077;50.922;6.584;2023-09-08T08:03:35;22.00;99.90
6098;DHT22;3077;50.922;6.584;2023-09-08T08:06:01;22.10;99.90
6098;DHT22;3077;50.922;6.584;2023-09-08T08:08:26;22.20;99.90
6098;DHT22;3077;50.922;6.584;2023-09-08T08:10:52;22.40;99.90
6098;DHT22;3077;50.922;6.584;2023-09-08T08:13:18;22.50;99.90
6098;DHT22;3077;50.922;6.584;2023-09-08T08:15:44;22.60;99.90
6098;DHT22;3077;50.922;6.584;2023-09-08T08:18:12;22.60;99.90
6098;DHT22;3077;50.922;6.584;2023-09-08T08:20:38;22.70;99.90
6098;DHT22;3077;50.922;6.584;2023-09-08T08:23:05;22.80;99.90
6098;DHT22;3077;50.922;6.584;2023-09-08T08:25:32;22.90;99.90
6098;DHT22;3077;50.922;6.584;2023-09-08T08:27:58;23.00;99.90
6098;DHT22;3077;50.922;6.584;2023-09-08T08:30:26;23.20;99.90
6098;DHT22;3077;50.922;6.584;2023-09-08T08:32:52;23.20;99.90
6098;DHT22;3077;50.922;6.584;2023-09-08T08:35:21;23.40;99.90
6098;DHT22;3077;50.922;6.584;2023-09-08T08:37:47;23.40;99.90
6098;DHT22;3077;50.922;6.584;2023-09-08T08:40:13;23.50;99.90
6098;DHT22;3077;50.922;6.584;2023-09-08T08:42:39;23.60;99.90
6098;DHT22;3077;50.922;6.584;2023-09-08T08:45:05;23.60;99.90
6098;DHT22;3077;50.922;6.584;2023-09-08T08:47:32;23.70;99.90
6098;DHT22;3077;50.922;6.584;2023-09-08T08:49:58;23.80;99.90
6098;DHT22;3077;50.922;6.584;2023-09-08T08:52:26;23.90;99.90
6098;DHT22;3077;50.922;6.584;2023-09-08T08:54:51;24.00;99.90
6098;DHT22;3077;50.922;6.584;2023-09-08T08:57:17;24.10;99.90
6098;DHT22;3077;50.922;6.584;2023-09-08T08:59:43;24.20;99.90
6098;DHT22;3077;50.922;6.584;2023-09-08T09:02:11;24.40;99.90
6098;DHT22;3077;50.922;6.584;2023-09-08T09:04:37;24.50;99.90
6098;DHT22;3077;50.922;6.584;2023-09-08T09:07:05;24.70;99.90
6098;DHT22;3077;50.922;6.584;2023-09-08T09:09:32;24.80;99.90
6098;DHT22;3077;50.922;6.584;2023-09-08T09:11:57;25.00;99.90
6098;DHT22;3077;50.922;6.584;2023-09-08T09:14:23;25.00;99.90
6098;DHT22;3077;50.922;6.584;2023-09-08T09:16:49;25.10;99.90
6098;DHT22;3077;50.922;6.584;2023-09-08T09:19:20;25.10;99.90
6098;DHT22;3077;50.922;6.584;2023-09-08T09:21:53;25.20;99.90
6098;DHT22;3077;50.922;6.584;2023-09-08T09:24:38;25.40;99.90
6098;DHT22;3077;50.922;6.584;2023-09-08T09:27:06;25.40;99.90
6098;DHT22;3077;50.922;6.584;2023-09-08T09:29:33;25.60;99.90
6098;DHT22;3077;50.922;6.584;2023-09-08T09:32:02;25.70;99.90
6098;DHT22;3077;50.922;6.584;2023-09-08T09:34:29;25.90;99.90
6098;DHT22;3077;50.922;6.584;2023-09-08T09:36:55;25.90;99.90
6098;DHT22;3077;50.922;6.584;2023-09-08T09:39:23;26.10;99.90
6098;DHT22;3077;50.922;6.584;2023-09-08T09:41:49;26.10;99.90
6098;DHT22;3077;50.922;6.584;2023-09-08T09:44:18;26.30;99.90
6098;DHT22;3077;50.922;6.584;2023-09-08T09:46:45;26.40;99.90
6098;DHT22;3077;50.922;6.584;2023-09-08T09:49:15;26.50;99.90
6098;DHT22;3077;50.922;6.584;2023-09-08T09:51:49;26.50;99.90
6098;DHT22;3077;50.922;6.584;2023-09-08T09:54:18;26.60;99.90
6098;DHT22;3077;50.922;6.584;2023-09-08T09:56:44;26.70;99.90
6098;DHT22;3077;50.922;6.584;2023-09-08T09:59:11;26.80;99.90
6098;DHT22;3077;50.922;6.584;2023-09-08T10:01:38;27.00;99.90
6098;DHT22;3077;50.922;6.584;2023-09-08T10:04:05;27.00;99.90
6098;DHT22;3077;50.922;6.584;2023-09-08T10:06:32;27.10;99.90
6098;DHT22;3077;50.922;6.584;2023-09-08T10:09:03;27.30;99.90
6098;DHT22;3077;50.922;6.584;2023-09-08T10:11:55;27.40;99.90
6098;DHT22;3077;50.922;6.584;2023-09-08T10:14:21;27.40;99.90
6098;DHT22;3077;50.922;6.584;2023-09-08T10:16:50;27.50;99.90
6098;DHT22;3077;50.922;6.584;2023-09-08T10:19:19;27.70;99.90
6098;DHT22;3077;50.922;6.584;2023-09-08T10:21:46;27.90;99.90
6098;DHT22;3077;50.922;6.584;2023-09-08T10:24:37;28.00;99.70
6098;DHT22;3077;50.922;6.584;2023-09-08T10:27:12;28.10;96.10
6098;DHT22;3077;50.922;6.584;2023-09-08T10:29:38;28.20;97.60
6098;DHT22;3077;50.922;6.584;2023-09-08T10:32:07;28.30;95.80
6098;DHT22;3077;50.922;6.584;2023-09-08T10:34:35;28.40;97.40
6098;DHT22;3077;50.922;6.584;2023-09-08T10:37:01;28.40;95.60
6098;DHT22;3077;50.922;6.584;2023-09-08T10:47:14;28.70;94.30
6098;DHT22;3077;50.922;6.584;2023-09-08T10:49:42;28.90;95.50
6098;DHT22;3077;50.922;6.584;2023-09-08T10:52:09;29.00;93.20
6098;DHT22;3077;50.922;6.584;2023-09-08T10:54:44;29.10;91.40
6098;DHT22;3077;50.922;6.584;2023-09-08T10:57:28;29.10;93.50
6098;DHT22;3077;50.922;6.584;2023-09-08T10:59:58;29.20;92.80
6098;DHT22;3077;50.922;6.584;2023-09-08T11:02:33;29.20;88.20
6098;DHT22;3077;50.922;6.584;2023-09-08T11:05:00;29.20;89.80
6098;DHT22;3077;50.922;6.584;2023-09-08T11:07:25;29.40;88.70
6098;DHT22;3077;50.922;6.584;2023-09-08T11:09:51;29.40;86.20
6098;DHT22;3077;50.922;6.584;2023-09-08T11:12:17;29.60;85.50
6098;DHT22;3077;50.922;6.584;2023-09-08T11:14:43;29.70;82.60
6098;DHT22;3077;50.922;6.584;2023-09-08T11:17:09;29.90;80.20
6098;DHT22;3077;50.922;6.584;2023-09-08T11:19:47;30.00;81.20
6098;DHT22;3077;50.922;6.584;2023-09-08T11:22:14;30.10;80.00
6098;DHT22;3077;50.922;6.584;2023-09-08T11:24:42;30.10;75.90
6098;DHT22;3077;50.922;6.584;2023-09-08T11:27:08;30.20;71.80
6098;DHT22;3077;50.922;6.584;2023-09-08T11:29:34;30.40;69.50
6098;DHT22;3077;50.922;6.584;2023-09-08T11:32:02;30.60;68.90
6098;DHT22;3077;50.922;6.584;2023-09-08T11:34:28;30.80;64.00
6098;DHT22;3077;50.922;6.584;2023-09-08T11:36:54;31.00;61.20
6098;DHT22;3077;50.922;6.584;2023-09-08T11:39:23;31.00;57.10
6098;DHT22;3077;50.922;6.584;2023-09-08T11:41:49;31.00;55.80
6098;DHT22;3077;50.922;6.584;2023-09-08T11:44:17;31.20;56.40
6098;DHT22;3077;50.922;6.584;2023-09-08T11:46:43;31.60;53.20
6098;DHT22;3077;50.922;6.584;2023-09-08T11:49:08;32.30;50.80
6098;DHT22;3077;50.922;6.584;2023-09-08T11:51:34;32.80;43.40
6098;DHT22;3077;50.922;6.584;2023-09-08T11:54:00;33.50;41.80
6098;DHT22;3077;50.922;6.584;2023-09-08T11:56:26;33.90;35.30
6098;DHT22;3077;50.922;6.584;2023-09-08T11:58:52;34.10;29.30
6098;DHT22;3077;50.922;6.584;2023-09-08T12:01:18;34.80;26.90
6098;DHT22;3077;50.922;6.584;2023-09-08T12:03:54;35.50;24.50
6098;DHT22;3077;50.922;6.584;2023-09-08T12:06:24;36.00;16.50
6098;DHT22;3077;50.922;6.584;2023-09-08T12:08:50;36.50;15.60
6098;DHT22;3077;50.922;6.584;2023-09-08T12:11:15;37.00;12.50
6098;DHT22;3077;50.922;6.584;2023-09-08T12:13:41;37.70;9.20
6098;DHT22;3077;50.922;6.584;2023-09-08T12:16:20;38.20;3.50
6098;DHT22;3077;50.922;6.584;2023-09-08T12:18:48;38.70;2.50
6098;DHT22;3077;50.922;6.584;2023-09-08T12:21:15;39.40;1.00
6098;DHT22;3077;50.922;6.584;2023-09-08T12:23:47;39.90;1.00
6098;DHT22;3077;50.922;6.584;2023-09-08T12:26:14;40.70;1.00
6098;DHT22;3077;50.922;6.584;2023-09-08T12:28:42;41.30;1.00
6098;DHT22;3077;50.922;6.584;2023-09-08T12:31:08;41.40;1.00
6098;DHT22;3077;50.922;6.584;2023-09-08T12:33:35;41.80;1.00
6098;DHT22;3077;50.922;6.584;2023-09-08T12:36:13;42.20;1.00
6098;DHT22;3077;50.922;6.584;2023-09-08T12:38:39;42.00;1.00
6098;DHT22;3077;50.922;6.584;2023-09-08T12:41:05;41.80;1.00
6098;DHT22;3077;50.922;6.584;2023-09-08T12:43:30;41.80;1.00
6098;DHT22;3077;50.922;6.584;2023-09-08T12:45:56;42.00;1.00
6098;DHT22;3077;50.922;6.584;2023-09-08T12:48:22;42.00;1.00
6098;DHT22;3077;50.922;6.584;2023-09-08T12:50:49;41.70;1.00
6098;DHT22;3077;50.922;6.584;2023-09-08T12:53:15;41.90;1.00
6098;DHT22;3077;50.922;6.584;2023-09-08T12:55:42;42.00;1.00
6098;DHT22;3077;50.922;6.584;2023-09-08T12:58:07;42.50;1.00
6098;DHT22;3077;50.922;6.584;2023-09-08T13:00:33;42.80;1.00
6098;DHT22;3077;50.922;6.584;2023-09-08T13:02:59;43.40;1.00
6098;DHT22;3077;50.922;6.584;2023-09-08T13:05:24;42.90;1.00
6098;DHT22;3077;50.922;6.584;2023-09-08T13:07:50;42.60;1.00
6098;DHT22;3077;50.922;6.584;2023-09-08T13:10:15;42.70;1.00
6098;DHT22;3077;50.922;6.584;2023-09-08T13:12:41;43.20;1.00
6098;DHT22;3077;50.922;6.584;2023-09-08T13:15:08;43.70;1.00
6098;DHT22;3077;50.922;6.584;2023-09-08T13:17:33;44.00;1.00
6098;DHT22;3077;50.922;6.584;2023-09-08T13:19:59;44.30;1.00
6098;DHT22;3077;50.922;6.584;2023-09-08T13:22:24;44.50;1.00
6098;DHT22;3077;50.922;6.584;2023-09-08T13:24:50;44.70;1.00
6098;DHT22;3077;50.922;6.584;2023-09-08T13:27:16;44.90;1.00
6098;DHT22;3077;50.922;6.584;2023-09-08T13:29:43;45.10;1.00
6098;DHT22;3077;50.922;6.584;2023-09-08T13:32:09;45.00;1.00
6098;DHT22;3077;50.922;6.584;2023-09-08T13:34:35;45.60;1.00
6098;DHT22;3077;50.922;6.584;2023-09-08T13:37:01;45.80;1.00
6098;DHT22;3077;50.922;6.584;2023-09-08T13:39:28;45.70;1.00
6098;DHT22;3077;50.922;6.584;2023-09-08T13:41:54;45.90;1.00
6098;DHT22;3077;50.922;6.584;2023-09-08T13:44:23;46.00;1.00
6098;DHT22;3077;50.922;6.584;2023-09-08T13:46:52;46.10;1.00
6098;DHT22;3077;50.922;6.584;2023-09-08T13:49:19;45.90;1.00
6098;DHT22;3077;50.922;6.584;2023-09-08T13:51:45;45.90;1.00
6098;DHT22;3077;50.922;6.584;2023-09-08T13:54:12;46.00;1.00
6098;DHT22;3077;50.922;6.584;2023-09-08T13:56:41;45.90;1.00
6098;DHT22;3077;50.922;6.584;2023-09-08T13:59:08;45.90;1.00
6098;DHT22;3077;50.922;6.584;2023-09-08T14:01:35;46.00;1.00
6098;DHT22;3077;50.922;6.584;2023-09-08T14:04:01;46.50;1.00
6098;DHT22;3077;50.922;6.584;2023-09-08T14:06:27;46.50;1.00
6098;DHT22;3077;50.922;6.584;2023-09-08T14:08:53;46.70;1.00
6098;DHT22;3077;50.922;6.584;2023-09-08T14:11:20;46.70;1.00
6098;DHT22;3077;50.922;6.584;2023-09-08T14:13:46;46.70;1.00
6098;DHT22;3077;50.922;6.584;2023-09-08T14:16:12;46.60;1.00
6098;DHT22;3077;50.922;6.584;2023-09-08T14:18:38;46.60;1.00
6098;DHT22;3077;50.922;6.584;2023-09-08T14:21:04;46.70;1.00
6098;DHT22;3077;50.922;6.584;2023-09-08T14:23:30;46.50;1.00
6098;DHT22;3077;50.922;6.584;2023-09-08T14:25:56;46.00;1.00
6098;DHT22;3077;50.922;6.584;2023-09-08T14:28:22;45.60;1.00
6098;DHT22;3077;50.922;6.584;2023-09-08T14:30:49;44.90;1.00
6098;DHT22;3077;50.922;6.584;2023-09-08T14:33:15;44.60;1.00
6098;DHT22;3077;50.922;6.584;2023-09-08T14:35:42;44.70;1.00
6098;DHT22;3077;50.922;6.584;2023-09-08T14:38:16;44.50;1.00
6098;DHT22;3077;50.922;6.584;2023-09-08T14:40:42;44.20;1.00
6098;DHT22;3077;50.922;6.584;2023-09-08T14:43:07;44.60;1.00
6098;DHT22;3077;50.922;6.584;2023-09-08T14:45:33;44.90;1.00
6098;DHT22;3077;50.922;6.584;2023-09-08T14:47:59;45.40;1.00
6098;DHT22;3077;50.922;6.584;2023-09-08T14:50:24;45.30;1.00
6098;DHT22;3077;50.922;6.584;2023-09-08T14:52:50;45.20;1.00
6098;DHT22;3077;50.922;6.584;2023-09-08T14:55:15;45.40;1.00
6098;DHT22;3077;50.922;6.584;2023-09-08T14:57:41;45.00;1.00
6098;DHT22;3077;50.922;6.584;2023-09-08T15:00:08;44.90;1.00
6098;DHT22;3077;50.922;6.584;2023-09-08T15:02:35;45.00;1.00
6098;DHT22;3077;50.922;6.584;2023-09-08T15:05:00;45.40;1.00
6098;DHT22;3077;50.922;6.584;2023-09-08T15:07:26;45.70;1.00
6098;DHT22;3077;50.922;6.584;2023-09-08T15:09:51;45.70;1.00
6098;DHT22;3077;50.922;6.584;2023-09-08T15:12:17;44.80;1.00
6098;DHT22;3077;50.922;6.584;2023-09-08T15:14:43;44.20;1.00
6098;DHT22;3077;50.922;6.584;2023-09-08T15:17:11;44.50;1.00
6098;DHT22;3077;50.922;6.584;2023-09-08T15:19:38;44.60;1.00
6098;DHT22;3077;50.922;6.584;2023-09-08T15:22:04;44.80;1.00
6098;DHT22;3077;50.922;6.584;2023-09-08T15:24:30;45.00;1.00
6098;DHT22;3077;50.922;6.584;2023-09-08T15:26:55;45.10;1.00
6098;DHT22;3077;50.922;6.584;2023-09-08T15:29:22;45.20;1.00
6098;DHT22;3077;50.922;6.584;2023-09-08T15:31:48;45.10;1.00
6098;DHT22;3077;50.922;6.584;2023-09-08T15:34:14;44.80;1.00
6098;DHT22;3077;50.922;6.584;2023-09-08T15:36:39;44.60;1.00
6098;DHT22;3077;50.922;6.584;2023-09-08T15:39:05;44.90;1.00
6098;DHT22;3077;50.922;6.584;2023-09-08T15:41:31;44.90;1.00
6098;DHT22;3077;50.922;6.584;2023-09-08T15:43:56;44.70;1.00
6098;DHT22;3077;50.922;6.584;2023-09-08T15:46:22;44.90;1.00
6098;DHT22;3077;50.922;6.584;2023-09-08T15:48:47;45.30;1.00
6098;DHT22;3077;50.922;6.584;2023-09-08T15:51:13;45.50;1.00
6098;DHT22;3077;50.922;6.584;2023-09-08T15:53:39;45.70;1.00
6098;DHT22;3077;50.922;6.584;2023-09-08T15:56:07;45.50;1.00
6098;DHT22;3077;50.922;6.584;2023-09-08T15:58:33;45.50;1.00
6098;DHT22;3077;50.922;6.584;2023-09-08T16:01:00;45.60;1.00
6098;DHT22;3077;50.922;6.584;2023-09-08T16:03:25;45.80;1.00
6098;DHT22;3077;50.922;6.584;2023-09-08T16:05:51;45.70;1.00
6098;DHT22;3077;50.922;6.584;2023-09-08T16:08:16;45.80;1.00
6098;DHT22;3077;50.922;6.584;2023-09-08T16:10:42;46.10;1.00
6098;DHT22;3077;50.922;6.584;2023-09-08T16:13:08;46.10;1.00